createdAt,value
2024-01-22T00:02:11.118Z,36.40
2024-01-22T00:04:37.496Z,36.48
2024-01-22T00:07:03.862Z,36.74
2024-01-22T00:09:30.185Z,37.35
2024-01-22T00:11:56.583Z,37.12
2024-01-22T00:14:22.923Z,36.94
2024-01-22T00:16:49.271Z,38.01
2024-01-22T00:19:15.804Z,39.68
2024-01-22T00:21:43.452Z,38.73
2024-01-22T00:24:10.263Z,38.46
2024-01-22T00:26:36.669Z,38.98
2024-01-22T00:29:03.070Z,38.85
2024-01-22T00:31:29.935Z,38.87
2024-01-22T00:33:56.383Z,36.87
2024-01-22T00:36:22.923Z,37.90
2024-01-22T00:38:49.323Z,37.59
2024-01-22T00:41:15.716Z,36.56
2024-01-22T00:43:42.071Z,36.44
2024-01-22T00:46:08.403Z,36.18
2024-01-22T00:48:34.880Z,36.57
2024-01-22T00:51:01.305Z,38.01
2024-01-22T00:53:27.712Z,38.48
2024-01-22T00:55:54.067Z,37.70
2024-01-22T00:58:20.417Z,38.55
2024-01-22T01:00:46.869Z,38.07
2024-01-22T01:03:13.588Z,37.72
2024-01-22T01:05:40.171Z,38.02
2024-01-22T01:08:06.671Z,37.30
2024-01-22T01:10:33.022Z,35.93
2024-01-22T01:12:59.441Z,36.25
2024-01-22T01:15:25.924Z,37.30
2024-01-22T01:17:52.429Z,37.46
2024-01-22T01:20:18.896Z,36.73
2024-01-22T01:22:45.306Z,37.41
2024-01-22T01:25:11.666Z,36.73
2024-01-22T01:27:38.065Z,36.89
2024-01-22T01:30:04.727Z,36.01
2024-01-22T01:32:31.718Z,37.08
2024-01-22T01:34:58.295Z,37.09
2024-01-22T01:37:24.646Z,37.92
2024-01-22T01:39:50.981Z,38.04
2024-01-22T01:42:17.398Z,37.10
2024-01-22T01:44:50.867Z,36.71
2024-01-22T01:47:17.430Z,36.51
2024-01-22T01:49:43.926Z,37.22
2024-01-22T01:52:11.691Z,36.56
2024-01-22T01:54:38.169Z,37.85
2024-01-22T01:57:05.636Z,37.62
2024-01-22T01:59:31.989Z,37.54
2024-01-22T02:01:58.422Z,37.27
2024-01-22T02:04:24.948Z,36.23
2024-01-22T02:06:51.300Z,36.10
2024-01-22T02:09:17.648Z,35.59
2024-01-22T02:11:44.013Z,37.46
2024-01-22T02:14:10.374Z,38.44
2024-01-22T02:16:36.826Z,37.79
2024-01-22T02:19:03.407Z,38.11
2024-01-22T02:21:29.820Z,38.90
2024-01-22T02:23:56.164Z,38.08
2024-01-22T02:26:22.524Z,37.90
2024-01-22T02:28:48.862Z,38.57
2024-01-22T02:31:15.441Z,39.14
2024-01-22T02:33:42.420Z,36.92
2024-01-22T02:36:08.885Z,36.44
2024-01-22T02:38:35.447Z,36.64
2024-01-22T02:41:01.852Z,37.09
2024-01-22T02:43:28.196Z,36.60
2024-01-22T02:45:54.631Z,36.96
2024-01-22T02:48:21.031Z,36.47
2024-01-22T02:50:47.473Z,36.40
2024-01-22T02:53:13.891Z,36.80
2024-01-22T02:55:40.228Z,37.30
2024-01-22T02:58:06.575Z,37.49
2024-01-22T03:00:33.333Z,37.76
2024-01-22T03:02:59.795Z,38.18
2024-01-22T03:05:26.298Z,38.68
2024-01-22T03:07:52.662Z,37.82
2024-01-22T03:10:19.008Z,36.83
2024-01-22T03:12:47.005Z,37.69
2024-01-22T03:15:13.436Z,38.62
2024-01-22T03:17:39.902Z,38.23
2024-01-22T03:20:06.751Z,38.68
2024-01-22T03:22:33.137Z,37.11
2024-01-22T03:24:59.600Z,37.03
2024-01-22T03:27:26.022Z,37.20
2024-01-22T03:29:52.808Z,37.36
2024-01-22T03:32:19.182Z,37.33
2024-01-22T03:34:45.690Z,36.92
2024-01-22T03:37:12.385Z,36.37
2024-01-22T03:39:38.724Z,36.26
2024-01-22T03:42:05.333Z,36.84
2024-01-22T03:44:31.763Z,35.91
2024-01-22T03:46:58.115Z,36.14
2024-01-22T03:49:24.566Z,35.97
2024-01-22T03:51:50.966Z,36.98
2024-01-22T03:54:17.507Z,36.58
2024-01-22T03:56:45.123Z,36.02
2024-01-22T03:59:11.716Z,37.18
2024-01-22T04:01:38.047Z,37.52
2024-01-22T04:04:04.594Z,38.20
2024-01-22T04:06:31.112Z,39.11
2024-01-22T04:08:57.591Z,37.60
2024-01-22T04:11:23.959Z,38.25
2024-01-22T04:13:50.302Z,38.27
2024-01-22T04:16:16.817Z,38.54
2024-01-22T04:18:43.902Z,38.42
2024-01-22T04:21:10.900Z,37.57
2024-01-22T04:23:37.352Z,36.53
2024-01-22T04:26:04.180Z,36.91
2024-01-22T04:28:30.515Z,36.24
2024-01-22T04:30:56.885Z,36.20
2024-01-22T04:33:23.366Z,36.27
2024-01-22T04:35:50.882Z,37.08
2024-01-22T04:38:17.916Z,36.75
2024-01-22T04:40:44.271Z,39.53
2024-01-22T04:43:10.623Z,39.80
2024-01-22T04:45:37.470Z,38.52
2024-01-22T04:48:03.878Z,37.46
2024-01-22T04:50:30.495Z,37.21
2024-01-22T04:52:56.925Z,36.52
2024-01-22T04:55:24.856Z,36.71
2024-01-22T04:57:53.491Z,37.15
2024-01-22T05:00:20.350Z,39.04
2024-01-22T05:02:46.971Z,38.42
2024-01-22T05:05:13.695Z,39.02
2024-01-22T05:07:40.109Z,39.48
2024-01-22T05:10:07.312Z,37.55
2024-01-22T05:12:33.670Z,37.17
2024-01-22T05:15:00.029Z,38.01
2024-01-22T05:17:27.856Z,37.63
2024-01-22T05:19:54.495Z,37.24
2024-01-22T05:22:21.010Z,42.00
2024-01-22T05:24:47.373Z,39.47
2024-01-22T05:27:13.875Z,37.98
2024-01-22T05:29:40.341Z,38.03
2024-01-22T05:32:06.790Z,38.25
2024-01-22T05:34:33.199Z,37.82
2024-01-22T05:36:59.641Z,37.23
2024-01-22T05:39:27.695Z,37.97
2024-01-22T05:41:54.810Z,37.27
2024-01-22T05:44:21.188Z,36.94
2024-01-22T05:46:47.570Z,36.94
2024-01-22T05:49:14.023Z,36.43
2024-01-22T05:51:40.397Z,37.12
2024-01-22T05:54:06.886Z,37.52
2024-01-22T05:56:33.999Z,38.14
2024-01-22T05:59:00.389Z,37.61
2024-01-22T06:01:27.212Z,37.05
2024-01-22T06:03:54.020Z,36.66
2024-01-22T06:06:20.501Z,36.63
2024-01-22T06:08:47.277Z,36.32
2024-01-22T06:11:13.645Z,37.09
2024-01-22T06:13:53.079Z,37.24
2024-01-22T06:16:26.731Z,37.06
2024-01-22T06:18:53.172Z,37.75
2024-01-22T06:21:19.722Z,36.93
2024-01-22T06:23:47.743Z,37.41
2024-01-22T06:26:14.165Z,37.79
2024-01-22T06:28:40.569Z,36.83
2024-01-22T06:31:07.370Z,36.63
2024-01-22T06:33:33.891Z,36.29
2024-01-22T06:36:00.366Z,37.09
2024-01-22T06:38:26.742Z,38.48
2024-01-22T06:40:53.397Z,37.45
2024-01-22T06:43:19.759Z,36.79
2024-01-22T06:45:46.101Z,34.89
2024-01-22T06:48:13.181Z,35.48
2024-01-22T06:50:40.397Z,35.66
2024-01-22T06:53:06.793Z,35.56
2024-01-22T06:55:33.188Z,36.17
2024-01-22T06:57:59.554Z,36.49
2024-01-22T07:00:26.062Z,36.08
2024-01-22T07:02:52.590Z,35.72
2024-01-22T07:05:19.530Z,40.14
2024-01-22T07:07:45.991Z,40.84
2024-01-22T07:10:12.522Z,38.87
2024-01-22T07:12:41.657Z,37.75
2024-01-22T07:15:13.458Z,37.08
2024-01-22T07:17:41.288Z,37.32
2024-01-22T07:20:09.711Z,37.01
2024-01-22T07:22:37.576Z,36.87
2024-01-22T07:25:04.380Z,37.32
2024-01-22T07:27:30.934Z,36.79
2024-01-22T07:29:57.879Z,36.53
2024-01-22T07:32:24.322Z,37.27
2024-01-22T07:34:50.892Z,37.26
2024-01-22T07:37:17.708Z,36.85
2024-01-22T07:39:44.177Z,36.77
2024-01-22T07:42:10.981Z,37.86
2024-01-22T07:44:37.407Z,38.60
2024-01-22T07:47:03.874Z,39.08
2024-01-22T07:49:30.287Z,38.24
2024-01-22T07:51:56.808Z,38.16
2024-01-22T07:54:23.324Z,37.16
2024-01-22T07:56:49.812Z,36.95
2024-01-22T07:59:16.800Z,37.06
2024-01-22T08:01:43.191Z,37.12
2024-01-22T08:04:09.590Z,36.57
2024-01-22T08:06:36.010Z,37.31
2024-01-22T08:09:03.159Z,36.69
2024-01-22T08:11:29.649Z,36.43
2024-01-22T08:13:55.972Z,37.17
2024-01-22T08:16:22.324Z,37.76
2024-01-22T08:18:49.016Z,37.87
2024-01-22T08:21:16.027Z,37.51
2024-01-22T08:23:42.420Z,37.60
2024-01-22T08:26:08.793Z,37.48
2024-01-22T08:28:35.137Z,37.60
2024-01-22T08:31:01.995Z,37.67
2024-01-22T08:33:28.606Z,36.62
2024-01-22T08:35:55.198Z,37.92
2024-01-22T08:38:21.640Z,39.58
2024-01-22T08:40:47.984Z,40.29
2024-01-22T08:43:14.359Z,39.15
2024-01-22T08:45:40.746Z,38.41
2024-01-22T08:48:07.251Z,41.58
2024-01-22T08:50:33.641Z,41.87
2024-01-22T08:52:59.995Z,41.73
2024-01-22T08:55:26.404Z,39.52
2024-01-22T08:57:54.756Z,38.13
2024-01-22T09:00:22.434Z,40.67
2024-01-22T09:02:49.135Z,41.16
2024-01-22T09:05:15.779Z,40.13
2024-01-22T09:07:43.113Z,38.40
2024-01-22T09:10:10.145Z,38.81
2024-01-22T09:12:36.745Z,38.21
2024-01-22T09:15:04.038Z,38.35
2024-01-22T09:17:31.418Z,38.44
2024-01-22T09:19:58.215Z,37.47
2024-01-22T09:22:24.744Z,37.21
2024-01-22T09:24:53.164Z,36.69
2024-01-22T09:27:19.580Z,37.16
2024-01-22T09:29:46.513Z,38.03
2024-01-22T09:32:12.875Z,37.67
2024-01-22T09:34:39.326Z,38.37
2024-01-22T09:37:05.997Z,41.77
2024-01-22T09:39:32.605Z,42.24
2024-01-22T09:41:59.357Z,40.68
2024-01-22T09:44:25.976Z,39.30
2024-01-22T09:46:52.374Z,38.93
2024-01-22T09:49:18.920Z,38.60
2024-01-22T09:51:45.477Z,38.15
2024-01-22T09:54:12.715Z,37.75
2024-01-22T09:56:39.605Z,38.69
2024-01-22T09:59:12.989Z,38.45
2024-01-22T10:01:39.333Z,37.13
2024-01-22T10:04:06.890Z,36.55
2024-01-22T10:06:35.045Z,35.58
2024-01-22T10:09:01.991Z,35.68
2024-01-22T10:11:28.356Z,35.44
2024-01-22T10:13:56.075Z,33.89
2024-01-22T10:16:24.868Z,34.02
2024-01-22T10:18:57.716Z,36.64
2024-01-22T10:21:24.540Z,36.18
2024-01-22T10:24:00.726Z,35.45
2024-01-22T10:26:27.403Z,36.13
2024-01-22T10:28:53.940Z,36.89
2024-01-22T10:31:20.371Z,36.17
2024-01-22T10:33:47.212Z,36.29
2024-01-22T10:36:14.925Z,36.24
2024-01-22T10:38:41.406Z,36.36
2024-01-22T10:41:20.381Z,33.56
2024-01-22T10:43:46.981Z,37.27
2024-01-22T10:46:13.831Z,37.25
2024-01-22T10:48:45.146Z,36.59
2024-01-22T10:51:14.308Z,37.26
2024-01-22T10:53:41.547Z,36.73
2024-01-22T10:56:24.872Z,36.78
2024-01-22T10:58:52.447Z,36.52
2024-01-22T11:01:21.168Z,36.95
2024-01-22T11:03:48.812Z,36.55
2024-01-22T11:06:19.260Z,36.27
2024-01-22T11:11:27.457Z,36.65
2024-01-22T11:13:56.597Z,37.55
2024-01-22T11:16:23.110Z,38.61
2024-01-22T11:18:56.264Z,37.41
2024-01-22T11:21:23.057Z,38.37
2024-01-22T11:24:04.631Z,39.95
2024-01-22T11:26:31.045Z,39.22
2024-01-22T11:29:15.790Z,38.32
2024-01-22T11:31:42.425Z,37.15
2024-01-22T11:34:11.401Z,37.50
2024-01-22T11:36:50.727Z,37.76
2024-01-22T11:39:44.266Z,37.94
2024-01-22T11:42:27.036Z,37.45
2024-01-22T11:44:54.213Z,37.02
2024-01-22T11:47:21.329Z,36.98
2024-01-22T11:49:47.904Z,36.26
2024-01-22T11:52:15.381Z,36.64
2024-01-22T11:54:56.461Z,36.94
2024-01-22T11:57:23.038Z,34.64
2024-01-22T11:59:59.475Z,34.30
2024-01-22T12:02:25.883Z,33.86
2024-01-22T12:05:01.962Z,35.10
2024-01-22T12:07:34.515Z,35.58
2024-01-22T12:10:01.166Z,36.25
2024-01-22T12:12:27.607Z,36.35
2024-01-22T12:15:00.655Z,34.26
2024-01-22T12:17:27.106Z,34.59
2024-01-22T12:19:59.512Z,34.59
2024-01-22T12:22:27.810Z,34.03
2024-01-22T12:25:08.146Z,34.95
2024-01-22T12:27:34.756Z,34.79
2024-01-22T12:30:02.062Z,34.79
2024-01-22T12:32:28.714Z,34.95
2024-01-22T12:34:58.447Z,34.65
2024-01-22T12:37:26.365Z,35.98
2024-01-22T12:40:15.628Z,35.94
2024-01-22T12:42:42.864Z,35.94
2024-01-22T12:45:12.260Z,37.15
2024-01-22T12:47:38.750Z,35.78
2024-01-22T12:50:05.788Z,35.77
2024-01-22T12:52:32.854Z,36.54
2024-01-22T12:55:02.168Z,35.20
2024-01-22T12:57:29.305Z,36.19
2024-01-22T12:59:55.792Z,36.38
2024-01-22T13:02:22.516Z,35.63
2024-01-22T13:04:50.618Z,34.10
2024-01-22T13:07:17.703Z,34.34
2024-01-22T13:09:44.110Z,33.62
2024-01-22T13:12:10.662Z,34.39
2024-01-22T13:14:37.391Z,34.44
2024-01-22T13:17:05.390Z,35.13
2024-01-22T13:19:32.821Z,35.34
2024-01-22T13:22:00.102Z,35.62
2024-01-22T13:24:27.374Z,35.74
2024-01-22T13:26:54.272Z,36.29
2024-01-22T13:29:21.159Z,36.49
2024-01-22T13:31:47.588Z,36.75
2024-01-22T13:34:14.097Z,36.10
2024-01-22T13:36:40.915Z,35.92
2024-01-22T13:39:10.730Z,35.60
2024-01-22T13:41:37.111Z,36.22
2024-01-22T13:44:06.483Z,36.21
2024-01-22T13:46:33.685Z,36.83
2024-01-22T13:49:00.438Z,38.20
2024-01-22T13:51:26.921Z,37.91
2024-01-22T13:53:53.322Z,36.99
2024-01-22T13:56:20.247Z,37.80
2024-01-22T13:58:46.818Z,36.25
2024-01-22T14:01:13.217Z,36.80
2024-01-22T14:03:39.855Z,37.92
2024-01-22T14:06:09.447Z,34.73
2024-01-22T14:08:36.205Z,35.97
2024-01-22T14:11:02.582Z,34.55
2024-01-22T14:13:29.818Z,35.18
2024-01-22T14:15:56.225Z,36.06
2024-01-22T14:18:24.460Z,35.56
2024-01-22T14:20:50.951Z,36.23
2024-01-22T14:23:18.104Z,35.67
2024-01-22T14:25:44.504Z,37.40
2024-01-22T14:28:11.008Z,35.73
2024-01-22T14:30:37.972Z,35.28
2024-01-22T14:33:04.584Z,36.32
2024-01-22T14:35:31.414Z,35.72
2024-01-22T14:37:57.869Z,33.26
2024-01-22T14:40:24.359Z,35.98
2024-01-22T14:42:50.754Z,38.47
2024-01-22T14:45:17.162Z,39.59
2024-01-22T14:47:43.630Z,40.83
2024-01-22T14:50:10.130Z,39.37
2024-01-22T14:52:36.861Z,37.56
2024-01-22T14:55:03.234Z,38.45
2024-01-22T14:57:29.690Z,39.14
2024-01-22T14:59:56.109Z,39.21
2024-01-22T15:02:22.923Z,40.42
2024-01-22T15:04:50.202Z,40.94
2024-01-22T15:07:16.692Z,40.37
2024-01-22T15:09:43.084Z,39.71
2024-01-22T15:12:09.674Z,37.84
2024-01-22T15:14:36.814Z,37.66
2024-01-22T15:17:03.513Z,38.11
2024-01-22T15:19:30.315Z,38.55
2024-01-22T15:21:58.819Z,39.85
2024-01-22T15:24:27.017Z,40.38
2024-01-22T15:26:55.066Z,40.16
2024-01-22T15:29:21.468Z,39.86
2024-01-22T15:31:48.545Z,41.84
2024-01-22T15:34:15.302Z,43.09
2024-01-22T15:36:41.769Z,43.69
2024-01-22T15:39:09.206Z,48.64
2024-01-22T15:41:36.270Z,45.74
2024-01-22T15:44:04.610Z,45.47
2024-01-22T15:46:31.272Z,45.16
2024-01-22T15:48:57.893Z,46.98
2024-01-22T15:51:24.500Z,45.86
2024-01-22T15:53:51.023Z,46.27
2024-01-22T15:56:19.166Z,46.65
2024-01-22T15:58:45.830Z,48.51
2024-01-22T16:01:17.518Z,49.20
2024-01-22T16:03:44.745Z,54.30
2024-01-22T16:06:11.363Z,56.33
2024-01-22T16:08:37.888Z,56.93
2024-01-22T16:11:04.560Z,53.02
2024-01-22T16:13:31.036Z,52.01
2024-01-22T16:15:57.519Z,50.43
2024-01-22T16:18:23.989Z,50.97
2024-01-22T16:20:50.538Z,53.10
2024-01-22T16:23:17.847Z,53.33
2024-01-22T16:25:44.247Z,59.02
2024-01-22T16:28:10.754Z,57.47
2024-01-22T16:30:42.158Z,55.05
2024-01-22T16:33:10.199Z,52.43
2024-01-22T16:35:36.753Z,54.51
2024-01-22T16:38:03.171Z,53.67
2024-01-22T16:40:29.555Z,51.84
2024-01-22T16:42:56.225Z,56.49
2024-01-22T16:45:22.645Z,59.47
2024-01-22T16:47:49.232Z,58.04
2024-01-22T16:50:15.761Z,59.08
2024-01-22T16:52:42.264Z,55.11
2024-01-22T16:55:10.630Z,54.83
2024-01-22T16:57:38.404Z,54.86
2024-01-22T17:00:04.961Z,57.81
2024-01-22T17:02:31.304Z,62.50
2024-01-22T17:04:57.745Z,57.70
2024-01-22T17:07:24.190Z,59.00
2024-01-22T17:09:50.723Z,57.95
2024-01-22T17:12:17.217Z,56.00
2024-01-22T17:14:43.589Z,55.26
2024-01-22T17:17:10.063Z,56.93
2024-01-22T17:19:37.593Z,56.98
2024-01-22T17:22:04.021Z,55.49
2024-01-22T17:24:33.074Z,54.04
2024-01-22T17:26:59.567Z,54.05
2024-01-22T17:29:26.216Z,54.30
2024-01-22T17:31:53.646Z,57.75
2024-01-22T17:34:20.221Z,57.64
2024-01-22T17:36:47.277Z,58.21
2024-01-22T17:39:18.151Z,55.64
2024-01-22T17:41:44.519Z,54.31
2024-01-22T17:44:10.877Z,55.38
2024-01-22T17:46:39.196Z,62.69
2024-01-22T17:49:05.603Z,61.38
2024-01-22T17:51:31.990Z,59.25
2024-01-22T17:53:58.410Z,57.76
2024-01-22T17:56:24.823Z,57.28
2024-01-22T17:58:51.206Z,64.08
2024-01-22T18:01:17.614Z,66.79
2024-01-22T18:03:44.172Z,63.38
2024-01-22T18:06:10.673Z,61.16
2024-01-22T18:08:37.097Z,63.82
2024-01-22T18:11:03.495Z,62.43
2024-01-22T18:13:29.857Z,63.26
2024-01-22T18:15:57.832Z,61.87
2024-01-22T18:18:24.427Z,60.03
2024-01-22T18:20:51.026Z,58.82
2024-01-22T18:23:17.428Z,58.83
2024-01-22T18:25:43.765Z,59.07
2024-01-22T18:28:11.019Z,59.63
2024-01-22T18:30:40.225Z,61.40
2024-01-22T18:33:07.465Z,59.94
2024-01-22T18:35:33.877Z,61.41
2024-01-22T18:38:00.236Z,64.09
2024-01-22T18:40:26.586Z,66.12
2024-01-22T18:42:53.114Z,60.77
2024-01-22T18:45:19.537Z,59.89
2024-01-22T18:47:45.975Z,62.44
2024-01-22T18:50:12.350Z,63.05
2024-01-22T18:52:38.693Z,61.36
2024-01-22T18:55:05.212Z,61.67
2024-01-22T18:57:31.604Z,61.90
2024-01-22T18:59:58.034Z,61.03
2024-01-22T19:02:24.498Z,64.42
2024-01-22T19:04:50.881Z,62.22
2024-01-22T19:07:17.243Z,59.95
2024-01-22T19:09:44.816Z,62.69
2024-01-22T19:12:11.257Z,61.40
2024-01-22T19:14:37.620Z,60.23
2024-01-22T19:17:06.057Z,59.63
2024-01-22T19:19:32.985Z,59.79
2024-01-22T19:21:59.373Z,59.21
2024-01-22T19:24:25.855Z,62.05
2024-01-22T19:26:52.290Z,62.74
2024-01-22T19:29:18.730Z,64.72
2024-01-22T19:31:45.492Z,64.23
2024-01-22T19:34:12.498Z,65.53
2024-01-22T19:36:39.037Z,64.89
2024-01-22T19:39:06.269Z,64.30
2024-01-22T19:41:32.843Z,60.83
2024-01-22T19:43:59.322Z,61.11
2024-01-22T19:46:25.780Z,60.09
2024-01-22T19:48:58.283Z,60.56
2024-01-22T19:51:28.078Z,61.44
2024-01-22T19:53:54.543Z,60.33
2024-01-22T19:56:20.946Z,57.99
2024-01-22T19:58:47.370Z,58.22
2024-01-22T20:01:13.769Z,60.64
2024-01-22T20:03:40.297Z,60.60
2024-01-22T20:06:06.956Z,60.49
2024-01-22T20:08:33.383Z,58.23
2024-01-22T20:10:59.709Z,62.18
2024-01-22T20:13:26.203Z,61.08
2024-01-22T20:15:52.552Z,61.35
2024-01-22T20:18:19.067Z,60.14
2024-01-22T20:20:45.522Z,59.50
2024-01-22T20:23:12.124Z,58.76
2024-01-22T20:25:38.566Z,57.98
2024-01-22T20:28:05.911Z,58.05
2024-01-22T20:30:32.305Z,58.55
2024-01-22T20:32:59.004Z,61.45
2024-01-22T20:35:25.493Z,58.89
2024-01-22T20:37:52.030Z,56.95
2024-01-22T20:40:18.373Z,55.64
2024-01-22T20:42:45.637Z,57.88
2024-01-22T20:45:12.465Z,58.97
2024-01-22T20:47:38.921Z,58.74
2024-01-22T20:50:05.378Z,66.78
2024-01-22T20:52:31.716Z,67.23
2024-01-22T20:54:58.170Z,68.83
2024-01-22T20:57:24.726Z,68.32
2024-01-22T20:59:51.265Z,66.85
2024-01-22T21:02:17.738Z,64.63
2024-01-22T21:04:44.372Z,60.98
2024-01-22T21:07:13.421Z,59.33
2024-01-22T21:09:40.022Z,58.23
2024-01-22T21:12:06.842Z,61.76
2024-01-22T21:14:35.736Z,63.69
2024-01-22T21:17:02.244Z,60.93
2024-01-22T21:19:28.972Z,59.10
2024-01-22T21:21:55.527Z,56.78
2024-01-22T21:24:21.941Z,55.37
2024-01-22T21:26:48.381Z,54.97
2024-01-22T21:29:16.758Z,55.14
2024-01-22T21:31:45.054Z,55.80
2024-01-22T21:34:11.610Z,55.30
2024-01-22T21:36:38.608Z,60.36
2024-01-22T21:39:05.057Z,63.22
2024-01-22T21:41:31.480Z,60.03
2024-01-22T21:43:57.835Z,58.17
2024-01-22T21:46:24.211Z,56.62
2024-01-22T21:48:50.731Z,56.64
2024-01-22T21:51:17.266Z,56.60
2024-01-22T21:53:45.620Z,57.43
2024-01-22T21:56:13.866Z,55.30
2024-01-22T21:58:40.753Z,55.90
2024-01-22T22:01:08.398Z,57.12
2024-01-22T22:03:34.918Z,59.43
2024-01-22T22:06:01.613Z,62.21
2024-01-22T22:08:28.227Z,61.07
2024-01-22T22:10:55.031Z,57.43
2024-01-22T22:13:21.705Z,57.70
2024-01-22T22:15:48.271Z,54.97
2024-01-22T22:18:15.186Z,55.34
2024-01-22T22:20:41.662Z,55.92
2024-01-22T22:23:08.108Z,54.20
2024-01-22T22:25:34.686Z,54.35
2024-01-22T22:28:01.019Z,60.13
2024-01-22T22:30:27.636Z,60.85
2024-01-22T22:32:58.555Z,57.42
2024-01-22T22:35:28.205Z,56.83
2024-01-22T22:37:54.615Z,56.40
2024-01-22T22:40:20.987Z,56.87
2024-01-22T22:42:47.377Z,56.55
2024-01-22T22:45:13.754Z,55.25
2024-01-22T22:47:40.432Z,55.59
2024-01-22T22:50:08.664Z,56.19
2024-01-22T22:52:35.272Z,56.92
2024-01-22T22:55:01.673Z,57.70
2024-01-22T22:57:29.246Z,63.91
2024-01-22T22:59:55.881Z,64.29
2024-01-22T23:02:23.170Z,60.93
2024-01-22T23:04:49.680Z,59.11
2024-01-22T23:07:16.238Z,58.11
2024-01-22T23:09:42.668Z,55.71
2024-01-22T23:12:09.154Z,61.59
2024-01-22T23:14:35.707Z,62.68
2024-01-22T23:17:02.359Z,60.66
2024-01-22T23:19:28.803Z,61.26
2024-01-22T23:21:55.180Z,59.39
2024-01-22T23:24:21.758Z,59.71
2024-01-22T23:26:48.216Z,57.51
2024-01-22T23:29:14.581Z,55.09
2024-01-22T23:31:41.260Z,55.20
2024-01-22T23:34:07.652Z,55.20
2024-01-22T23:36:34.190Z,55.74
2024-01-22T23:39:03.125Z,56.23
2024-01-22T23:41:29.492Z,58.63
2024-01-22T23:43:55.847Z,55.92
2024-01-22T23:46:22.202Z,56.91
2024-01-22T23:48:48.930Z,58.96
2024-01-22T23:51:16.260Z,57.48
2024-01-22T23:53:42.759Z,56.24
2024-01-22T23:56:09.159Z,55.27
2024-01-22T23:58:35.636Z,56.79
